Time;durP1;ratioP1;P1;durP2;ratioP2;P2;SDS_P1;SDS_P2;PMS_P1;PMS_P2;Temp;Humidity;BMP_temperature;BMP_pressure;BME280_temperature;BME280_humidity;BME280_pressure;Samples;Min_cycle;Max_cycle;Signal;HPM_P1;HPM_P2
2023/08/18 00:04:15;;;;;;;712.55;17.80;;;;;;;18.78;100.00;98905.09;15357200;19;20036;-45
2023/08/18 00:09:39;;;;;;;930.25;20.92;;;;;;;18.66;100.00;98907.56;15358195;19;20358;-44
2023/08/18 00:15:07;;;;;;;92.38;7.50;;;;;;;18.64;100.00;98939.66;15356166;19;20028;-44
2023/08/18 00:20:31;;;;;;;53.42;6.80;;;;;;;18.65;100.00;98957.72;15358889;19;20015;-43
2023/08/18 00:25:56;;;;;;;57.05;6.88;;;;;;;18.67;100.00;98972.00;15351926;19;20272;-45
2023/08/18 00:31:24;;;;;;;129.32;8.38;;;;;;;18.73;100.00;98993.06;15359024;19;20037;-45
2023/08/18 00:36:49;;;;;;;128.48;8.07;;;;;;;18.76;100.00;98992.63;15309097;19;20023;-45
2023/08/18 00:42:14;;;;;;;206.75;9.07;;;;;;;18.76;100.00;99006.28;15297124;19;20021;-46
2023/08/18 00:47:42;;;;;;;571.47;17.88;;;;;;;18.79;100.00;98999.59;15297871;19;20476;-44
2023/08/18 00:53:08;;;;;;;348.63;13.30;;;;;;;18.75;100.00;99004.63;15294641;19;20018;-45
2023/08/18 00:58:33;;;;;;;279.17;12.90;;;;;;;18.73;100.00;98998.53;15298911;19;20014;-45
2023/08/18 01:04:00;;;;;;;379.17;13.35;;;;;;;18.70;100.00;99004.38;15293339;19;20010;-44
2023/08/18 01:09:26;;;;;;;611.90;17.83;;;;;;;18.65;100.00;99001.38;15296796;19;20026;-44
2023/08/18 01:15:03;;;;;;;13.98;8.88;;;;;;;18.63;100.00;98992.59;15295459;19;20050;-43
2023/08/18 01:20:32;;;;;;;9.02;8.15;;;;;;;18.62;100.00;98985.44;15294673;19;20002;-49
2023/08/18 01:26:06;;;;;;;8.00;7.20;;;;;;;18.63;100.00;98995.31;15289200;19;20026;-47
2023/08/18 01:31:35;;;;;;;6.30;5.80;;;;;;;18.65;100.00;98993.19;15293721;19;20036;-46
2023/08/18 01:37:04;;;;;;;7.20;5.28;;;;;;;18.67;100.00;98999.31;15296230;19;20025;-49
2023/08/18 01:42:32;;;;;;;6.60;6.00;;;;;;;18.69;100.00;98999.97;15294255;19;20106;-46
2023/08/18 01:47:56;;;;;;;6.45;5.95;;;;;;;18.73;100.00;99005.84;15294243;19;20014;-45
2023/08/18 01:53:21;;;;;;;7.75;6.97;;;;;;;18.76;100.00;99005.47;15290222;19;20043;-47
2023/08/18 01:58:48;;;;;;;7.68;5.90;;;;;;;18.81;100.00;99004.84;15283451;19;20014;-46
2023/08/18 02:04:13;;;;;;;6.13;5.63;;;;;;;18.84;100.00;98993.53;15289914;19;20022;-47
2023/08/18 02:09:39;;;;;;;13.27;7.82;;;;;;;18.83;100.00;98983.66;15288346;19;20478;-45
2023/08/18 02:15:08;;;;;;;11.25;7.90;;;;;;;18.83;100.00;98978.22;15292745;19;20018;-46
2023/08/18 02:20:33;;;;;;;8.55;7.78;;;;;;;18.83;100.00;98967.28;15290117;19;20014;-46
2023/08/18 02:26:08;;;;;;;11.30;10.10;;;;;;;18.83;100.00;98965.38;15262589;19;20015;-49
2023/08/18 02:31:37;;;;;;;10.63;9.50;;;;;;;18.86;100.00;98969.63;15285480;19;20035;-45
2023/08/18 02:37:01;;;;;;;10.10;9.20;;;;;;;18.87;100.00;98960.38;15292880;19;20057;-50
2023/08/18 02:42:26;;;;;;;8.35;7.53;;;;;;;18.89;100.00;98961.88;15290391;19;20010;-47
2023/08/18 02:47:53;;;;;;;7.68;6.88;;;;;;;18.92;100.00;98957.88;15292888;19;20092;-48
2023/08/18 02:53:18;;;;;;;6.95;6.05;;;;;;;18.94;100.00;98951.19;15284733;19;20070;-46
2023/08/18 02:58:42;;;;;;;9.07;7.28;;;;;;;18.98;100.00;98959.84;15287289;19;20010;-44
2023/08/18 03:04:16;;;;;;;8.65;7.80;;;;;;;18.97;100.00;98969.06;15281906;19;20355;-80
2023/08/18 03:09:47;;;;;;;8.18;7.38;;;;;;;18.96;100.00;98951.00;15301846;19;20039;-80
2023/08/18 03:15:12;;;;;;;10.30;8.75;;;;;;;18.93;100.00;98951.38;15300875;19;20411;-79
2023/08/18 03:20:40;;;;;;;14.48;9.48;;;;;;;18.93;100.00;98962.28;15307177;19;20015;-80
2023/08/18 03:26:09;;;;;;;15.13;10.20;;;;;;;18.93;100.00;98959.56;15301868;19;20017;-80
2023/08/18 03:31:33;;;;;;;20.27;12.13;;;;;;;18.92;100.00;98969.66;15301991;19;20361;-79
2023/08/18 03:37:00;;;;;;;45.45;13.10;;;;;;;18.92;100.00;98979.72;15299433;19;20019;-80
2023/08/18 03:42:25;;;;;;;55.05;14.68;;;;;;;18.92;100.00;98987.91;15297511;19;20070;-80
2023/08/18 03:47:50;;;;;;;73.07;14.43;;;;;;;18.92;100.00;98996.09;15298064;19;20782;-80
2023/08/18 03:53:22;;;;;;;202.93;14.82;;;;;;;18.91;100.00;99008.06;15293891;19;20489;-80
2023/08/18 03:58:46;;;;;;;48.63;13.43;;;;;;;18.91;100.00;99008.94;15296051;19;20027;-80
2023/08/18 04:04:11;;;;;;;107.35;12.88;;;;;;;18.92;100.00;99013.34;15290297;19;20070;-80
2023/08/18 04:09:39;;;;;;;62.75;11.90;;;;;;;18.94;100.00;99026.81;15294797;19;20015;-79
2023/08/18 04:15:03;;;;;;;313.90;15.88;;;;;;;18.94;100.00;99013.16;15310786;19;20013;-79
2023/08/18 04:20:29;;;;;;;114.05;13.18;;;;;;;18.92;100.00;99009.75;15306665;19;20003;-80
2023/08/18 04:25:57;;;;;;;61.78;12.00;;;;;;;18.96;100.00;99010.22;15306396;19;20481;-80
2023/08/18 04:31:23;;;;;;;60.38;11.82;;;;;;;18.97;100.00;99017.38;15307672;19;20022;-79
2023/08/18 04:36:56;;;;;;;66.53;11.07;;;;;;;18.99;100.00;99024.34;15304131;19;20656;-80
2023/08/18 04:42:25;;;;;;;31.08;9.73;;;;;;;19.03;100.00;99022.03;15302135;19;20006;-80
2023/08/18 04:47:49;;;;;;;36.20;10.25;;;;;;;19.03;100.00;99030.22;15299482;19;20006;-78
2023/08/18 04:53:16;;;;;;;16.00;9.82;;;;;;;19.05;100.00;99030.88;15299826;19;20928;-79
2023/08/18 04:58:43;;;;;;;52.72;11.95;;;;;;;19.07;100.00;99035.09;15311212;19;20021;-79
2023/08/18 05:04:16;;;;;;;39.95;12.52;;;;;;;19.06;100.00;99033.41;15317522;19;20030;-79
2023/08/18 05:09:44;;;;;;;46.85;11.70;;;;;;;19.04;100.00;99040.94;15315238;19;20021;-79
2023/08/18 05:15:14;;;;;;;32.58;12.20;;;;;;;19.04;100.00;99040.94;15303350;19;20035;-78
2023/08/18 05:20:38;;;;;;;59.05;13.30;;;;;;;19.07;100.00;99035.09;15308085;19;20007;-79
2023/08/18 05:26:04;;;;;;;29.52;13.57;;;;;;;19.11;100.00;99048.34;15302355;19;20017;-80
2023/08/18 05:31:32;;;;;;;29.95;14.13;;;;;;;19.15;100.00;99052.34;15305997;19;20006;-80
2023/08/18 05:36:57;;;;;;;51.58;13.43;;;;;;;19.16;100.00;99065.81;15304046;19;20010;-80
2023/08/18 05:42:21;;;;;;;140.10;14.95;;;;;;;19.18;100.00;99051.94;15301156;19;20026;-80
2023/08/18 05:47:49;;;;;;;36.92;13.40;;;;;;;19.21;100.00;99051.56;15292374;19;20455;-79
2023/08/18 05:53:13;;;;;;;87.82;14.07;;;;;;;19.24;100.00;99045.66;15298533;19;20057;-80
2023/08/18 05:58:39;;;;;;;173.23;14.23;;;;;;;19.24;100.00;99051.13;15304694;19;20016;-79
2023/08/18 06:04:07;;;;;;;97.90;14.25;;;;;;;19.26;100.00;99054.50;15304731;19;20018;-79
2023/08/18 06:09:32;;;;;;;39.25;13.95;;;;;;;19.32;100.00;99061.91;15339020;19;20006;-79
2023/08/18 06:14:56;;;;;;;38.20;12.60;;;;;;;19.36;100.00;99065.91;15348785;19;20027;-80
2023/08/18 06:20:24;;;;;;;136.35;13.10;;;;;;;19.40;100.00;99067.19;15304973;19;20094;-79
2023/08/18 06:25:48;;;;;;;87.55;12.57;;;;;;;19.42;100.00;99064.25;15302976;19;20022;-80
2023/08/18 06:31:14;;;;;;;36.95;11.88;;;;;;;19.49;100.00;99069.75;15296087;19;20505;-80
2023/08/18 06:36:41;;;;;;;42.92;12.88;;;;;;;19.54;100.00;99065.34;15301352;19;20021;-79
2023/08/18 06:42:06;;;;;;;42.38;13.13;;;;;;;19.62;100.00;99080.72;15299152;19;20010;-80
2023/08/18 06:47:30;;;;;;;84.22;13.32;;;;;;;19.63;100.00;99071.47;15300017;19;20371;-80
2023/08/18 06:52:58;;;;;;;155.43;15.52;;;;;;;19.62;100.00;99052.56;15268602;19;20682;-80
2023/08/18 06:58:22;;;;;;;82.28;14.13;;;;;;;19.66;100.00;99060.16;15306859;19;20029;-79
2023/08/18 07:03:47;;;;;;;171.18;14.20;;;;;;;19.69;100.00;99054.28;15299320;19;20013;-80
2023/08/18 07:09:15;;;;;;;114.30;15.20;;;;;;;19.71;100.00;99045.88;15301559;19;20015;-79
2023/08/18 07:14:40;;;;;;;201.07;15.63;;;;;;;19.75;100.00;99043.56;15296893;19;20081;-80
2023/08/18 07:20:10;;;;;;;48.03;15.27;;;;;;;19.80;100.00;99041.06;15298641;19;20022;-80
2023/08/18 07:25:39;;;;;;;77.32;15.23;;;;;;;19.85;100.00;99046.75;15297982;19;20017;-80
2023/08/18 07:31:05;;;;;;;66.88;14.88;;;;;;;19.89;100.00;99033.50;15298651;19;20038;-80
2023/08/18 07:36:30;;;;;;;38.83;13.60;;;;;;;19.94;100.00;99034.59;15295401;19;20019;-80
2023/08/18 07:41:57;;;;;;;21.63;13.15;;;;;;;20.01;100.00;99032.72;15295622;19;20025;-80
2023/08/18 07:47:23;;;;;;;19.00;12.55;;;;;;;20.12;100.00;99035.88;15305595;19;20010;-79
2023/08/18 07:52:47;;;;;;;19.70;12.35;;;;;;;20.19;100.00;99023.03;15307509;19;20021;-79
2023/08/18 07:58:15;;;;;;;14.02;9.70;;;;;;;20.25;100.00;99024.97;15314593;19;20082;-79
2023/08/18 08:03:46;;;;;;;12.48;8.15;;;;;;;20.38;100.00;99024.13;15308577;19;20010;-80
2023/08/18 08:09:10;;;;;;;11.50;8.15;;;;;;;20.53;100.00;99020.31;15315195;19;20069;-80
2023/08/18 08:14:38;;;;;;;12.25;6.90;;;;;;;20.61;100.00;99004.53;15310096;19;20021;-80
2023/08/18 08:20:05;;;;;;;9.88;7.18;;;;;;;20.71;100.00;98995.03;15307721;19;20041;-80
2023/08/18 08:25:30;;;;;;;9.45;6.78;;;;;;;20.87;100.00;98969.13;15303026;19;20016;-80
2023/08/18 08:30:58;;;;;;;9.95;7.22;;;;;;;20.96;100.00;98959.59;15337912;19;20373;-80
2023/08/18 08:36:23;;;;;;;12.23;7.10;;;;;;;21.03;100.00;98930.31;15311916;19;20082;-80
2023/08/18 08:41:48;;;;;;;14.73;7.18;;;;;;;21.15;100.00;98903.03;15315059;19;20023;-79
2023/08/18 08:47:19;;;;;;;8.15;6.40;;;;;;;21.26;100.00;98887.81;15310138;19;20373;-80
2023/08/18 08:52:45;;;;;;;8.88;6.95;;;;;;;21.32;100.00;98878.72;15318474;19;20269;-80
2023/08/18 08:58:11;;;;;;;7.30;6.30;;;;;;;21.36;100.00;98865.41;15303528;19;20017;-79
2023/08/18 09:03:39;;;;;;;7.60;6.45;;;;;;;21.36;100.00;98847.06;15306308;19;20066;-79
2023/08/18 09:09:07;;;;;;;8.05;6.45;;;;;;;21.43;100.00;98829.72;15303923;19;20034;-80
2023/08/18 09:14:32;;;;;;;7.20;6.35;;;;;;;21.50;100.00;98823.13;15307518;19;20022;-81
2023/08/18 09:20:04;;;;;;;7.40;6.60;;;;;;;21.59;100.00;98803.66;15311068;19;20014;-81
2023/08/18 09:25:33;;;;;;;7.97;6.22;;;;;;;21.66;100.00;98810.81;15305394;19;20014;-80
2023/08/18 09:30:58;;;;;;;10.55;7.35;;;;;;;21.58;100.00;98786.38;15302777;19;20019;-80
2023/08/18 09:36:25;;;;;;;9.10;7.20;;;;;;;21.63;100.00;98805.78;15302225;19;20021;-81
2023/08/18 09:41:50;;;;;;;9.80;7.07;;;;;;;21.84;100.00;98793.56;15305293;19;20603;-81
2023/08/18 09:47:18;;;;;;;8.13;7.10;;;;;;;22.04;100.00;98762.34;15306934;19;20010;-81
2023/08/18 09:52:48;;;;;;;9.35;6.97;;;;;;;22.27;100.00;98756.16;15303384;19;20039;-81
2023/08/18 09:58:29;;;;;;;7.03;6.10;;;;;;;22.41;100.00;98717.59;15297779;19;20496;-53
2023/08/18 10:03:56;;;;;;;6.78;6.07;;;;;;;22.59;100.00;98703.81;15289591;19;20082;-53
2023/08/18 10:09:27;;;;;;;6.85;6.00;;;;;;;22.68;100.00;98685.13;15286969;19;20077;-53
2023/08/18 10:14:55;;;;;;;6.30;5.70;;;;;;;22.90;100.00;98692.81;15290487;19;20015;-53
2023/08/18 10:20:21;;;;;;;10.77;5.93;;;;;;;23.06;100.00;98685.78;15291944;19;20073;-48
2023/08/18 10:25:52;;;;;;;6.47;5.88;;;;;;;23.21;100.00;98688.94;15291352;19;20081;-53
2023/08/18 10:31:19;;;;;;;5.60;5.05;;;;;;;23.21;100.00;98655.16;15291705;19;20013;-48
2023/08/18 10:36:46;;;;;;;7.05;5.60;;;;;;;23.16;100.00;98668.72;15285762;19;20078;-52
2023/08/18 10:42:19;;;;;;;6.95;5.70;;;;;;;23.17;100.00;98660.22;15290217;19;20014;-51
2023/08/18 10:47:47;;;;;;;6.03;4.80;;;;;;;23.14;100.00;98635.13;15289412;19;20360;-50
2023/08/18 10:53:12;;;;;;;4.95;4.40;;;;;;;23.27;100.00;98662.44;15289574;19;20015;-48
2023/08/18 10:58:40;;;;;;;5.07;4.13;;;;;;;23.36;100.00;98628.00;15286290;19;20007;-50
2023/08/18 11:04:06;;;;;;;5.50;3.85;;;;;;;23.55;100.00;98638.88;15289968;19;20014;-48
2023/08/18 11:09:31;;;;;;;5.53;3.50;;;;;;;23.51;100.00;98610.19;15280644;19;20018;-48
2023/08/18 11:14:58;;;;;;;3.70;2.80;;;;;;;23.65;100.00;98606.09;15288863;19;20020;-51
2023/08/18 11:20:23;;;;;;;3.15;2.85;;;;;;;23.78;100.00;98593.16;15287442;19;20010;-48
2023/08/18 11:25:48;;;;;;;3.10;2.80;;;;;;;23.91;100.00;98600.28;15288428;19;20018;-50
2023/08/18 11:31:17;;;;;;;2.70;2.50;;;;;;;24.07;100.00;98583.03;15286670;19;20010;-50
2023/08/18 11:36:42;;;;;;;2.50;2.30;;;;;;;24.37;100.00;98584.66;15287606;19;20355;-53
2023/08/18 11:42:07;;;;;;;3.08;2.10;;;;;;;24.53;100.00;98568.41;15283374;19;20010;-55
2023/08/18 11:47:35;;;;;;;2.97;2.40;;;;;;;24.66;100.00;98570.00;15285393;19;20530;-55
2023/08/18 11:53:00;;;;;;;4.38;2.15;;;;;;;24.81;100.00;98562.03;15286734;19;20026;-53
2023/08/18 11:58:25;;;;;;;3.13;1.90;;;;;;;25.02;100.00;98554.06;15284934;19;20018;-51
2023/08/18 12:04:12;;;;;;;1.73;1.63;;;;;;;25.15;100.00;98547.38;15283674;19;20420;-53
2023/08/18 12:09:37;;;;;;;2.95;1.77;;;;;;;25.33;100.00;98524.19;15282541;19;20097;-50
2023/08/18 12:15:02;;;;;;;4.18;1.60;;;;;;;25.35;100.00;98521.97;15282500;19;20027;-52
2023/08/18 12:20:29;;;;;;;2.58;1.80;;;;;;;25.54;100.00;98520.63;15285736;19;20039;-53
2023/08/18 12:25:54;;;;;;;1.65;1.55;;;;;;;25.69;100.00;98510.88;15286631;19;20025;-49
2023/08/18 12:31:22;;;;;;;2.83;1.58;;;;;;;25.95;100.00;98497.31;15291173;19;20462;-55
2023/08/18 12:36:49;;;;;;;3.30;1.60;;;;;;;26.03;100.00;98487.75;15299000;19;20018;-51
2023/08/18 12:42:15;;;;;;;2.55;1.50;;;;;;;26.25;100.00;98493.22;15299587;19;20007;-51
2023/08/18 12:47:40;;;;;;;1.40;1.30;;;;;;;26.36;100.00;98495.00;14782273;19;10000562;-50
2023/08/18 12:53:08;;;;;;;3.63;1.20;;;;;;;26.59;100.00;98495.72;15297326;19;20018;-51
2023/08/18 12:58:33;;;;;;;3.58;1.38;;;;;;;26.89;100.00;98491.50;15296299;19;20467;-50
2023/08/18 13:03:57;;;;;;;1.63;1.20;;;;;;;27.22;100.00;98482.03;15298065;19;20610;-53
2023/08/18 13:09:26;;;;;;;1.40;1.30;;;;;;;27.45;100.00;98484.66;15292829;19;20018;-52
2023/08/18 13:14:51;;;;;;;3.40;1.20;;;;;;;27.74;100.00;98481.41;15298133;19;20074;-53
2023/08/18 13:20:16;;;;;;;2.00;1.10;;;;;;;27.91;100.00;98479.25;15294518;19;20014;-49
2023/08/18 13:25:44;;;;;;;1.30;1.20;;;;;;;28.10;100.00;98474.03;15296980;19;20010;-52
2023/08/18 13:31:16;;;;;;;1.70;1.30;;;;;;;28.27;100.00;98461.84;15295356;19;20010;-52
2023/08/18 13:36:41;;;;;;;1.30;1.20;;;;;;;28.50;100.00;98452.16;15295516;19;20471;-53
2023/08/18 13:42:08;;;;;;;1.95;1.20;;;;;;;28.78;100.00;98455.44;15295465;19;20019;-52
2023/08/18 13:47:33;;;;;;;1.50;1.30;;;;;;;29.04;100.00;98458.16;15289656;19;20353;-53
2023/08/18 13:52:57;;;;;;;1.30;1.20;;;;;;;29.34;100.00;98456.44;15291536;19;20502;-49
2023/08/18 13:58:24;;;;;;;1.40;1.30;;;;;;;29.51;100.00;98450.50;15289442;19;21086;-48
2023/08/18 14:03:49;;;;;;;3.38;1.40;;;;;;;29.74;100.00;98448.16;15292690;19;20025;-51
2023/08/18 14:09:14;;;;;;;1.58;1.23;;;;;;;29.79;100.00;98445.34;15288293;19;20014;-51
2023/08/18 14:14:41;;;;;;;2.47;1.30;;;;;;;30.21;100.00;98434.78;15288305;19;20019;-51
2023/08/18 14:20:12;;;;;;;2.00;1.33;;;;;;;30.64;100.00;98446.06;15275896;19;20010;-52
2023/08/18 14:25:38;;;;;;;1.58;1.20;;;;;;;31.08;100.00;98435.88;15289649;19;20015;-51
2023/08/18 14:31:10;;;;;;;1.45;1.20;;;;;;;31.17;100.00;98439.69;15288042;19;20017;-49
2023/08/18 14:36:35;;;;;;;1.92;1.38;;;;;;;31.43;100.00;98431.00;15289682;19;20740;-52
2023/08/18 14:42:00;;;;;;;1.95;1.50;;;;;;;31.54;100.00;98437.28;15284572;19;20023;-50
2023/08/18 14:47:27;;;;;;;2.25;1.40;;;;;;;31.76;100.00;98445.03;15288263;19;20029;-54
2023/08/18 14:52:52;;;;;;;2.45;1.45;;;;;;;31.92;100.00;98448.47;15283766;19;20009;-50
2023/08/18 14:58:16;;;;;;;2.15;1.35;;;;;;;32.03;100.00;98432.38;15285430;19;20011;-49
2023/08/18 15:03:44;;;;;;;1.40;1.30;;;;;;;32.03;100.00;98437.16;15287482;19;20332;-53
2023/08/18 15:09:08;;;;;;;4.00;1.58;;;;;;;32.02;100.00;98430.72;15281263;19;20098;-51
2023/08/18 15:14:33;;;;;;;1.60;1.50;;;;;;;32.03;100.00;98420.44;15286260;19;20017;-55
2023/08/18 15:20:01;;;;;;;2.03;1.58;;;;;;;32.10;100.00;98415.28;15282042;19;20078;-54
2023/08/18 15:25:26;;;;;;;2.05;1.60;;;;;;;32.06;100.00;98422.59;15283676;19;20011;-56
2023/08/18 15:30:50;;;;;;;1.85;1.50;;;;;;;32.05;100.00;98412.56;15282641;19;20018;-54
2023/08/18 15:36:18;;;;;;;3.83;1.80;;;;;;;32.05;100.00;98413.41;15286055;19;20018;-54
2023/08/18 15:41:45;;;;;;;3.50;1.50;;;;;;;32.16;100.00;98414.09;15283419;19;20015;-49
2023/08/18 15:47:11;;;;;;;2.65;1.40;;;;;;;32.21;100.00;98402.81;15281170;19;20082;-55
2023/08/18 15:52:38;;;;;;;1.70;1.60;;;;;;;32.26;100.00;98401.94;15283008;19;20010;-55
2023/08/18 15:58:03;;;;;;;1.67;1.58;;;;;;;32.31;100.00;98403.81;15278663;19;20018;-55
2023/08/18 16:03:35;;;;;;;2.40;1.70;;;;;;;32.37;100.00;98402.59;15283691;19;20018;-81
2023/08/18 16:09:05;;;;;;;2.28;1.73;;;;;;;32.26;100.00;98401.94;15320838;19;20018;-81
2023/08/18 16:14:30;;;;;;;2.95;1.73;;;;;;;32.24;100.00;98391.09;15322328;19;20026;-82
2023/08/18 16:19:58;;;;;;;1.90;1.70;;;;;;;32.12;100.00;98385.16;15315843;19;20031;-81
2023/08/18 16:25:25;;;;;;;3.13;1.50;;;;;;;32.02;100.00;98376.97;15318679;19;20010;-83
2023/08/18 16:30:53;;;;;;;1.95;1.77;;;;;;;32.14;100.00;98366.19;15314534;19;20027;-83
2023/08/18 16:36:17;;;;;;;2.78;1.90;;;;;;;31.95;100.00;98364.25;15318658;19;20096;-82
2023/08/18 16:41:44;;;;;;;3.60;2.28;;;;;;;31.85;100.00;98353.28;15312820;19;20412;-81
2023/08/18 16:47:10;;;;;;;2.67;2.25;;;;;;;31.65;100.00;98354.41;15309770;19;20019;-81
2023/08/18 16:52:35;;;;;;;2.58;2.35;;;;;;;31.43;100.00;98360.59;15294538;19;20484;-52
2023/08/18 16:58:02;;;;;;;2.85;2.50;;;;;;;31.27;100.00;98355.25;15297237;19;20018;-53
2023/08/18 17:03:27;;;;;;;3.85;2.72;;;;;;;31.07;100.00;98359.09;15287255;19;20011;-54
2023/08/18 17:08:51;;;;;;;4.57;2.80;;;;;;;30.90;100.00;98371.56;15287364;19;20018;-57
2023/08/18 17:14:19;;;;;;;3.60;2.70;;;;;;;30.71;100.00;98377.06;15289643;19;20099;-54
2023/08/18 17:19:47;;;;;;;4.40;3.10;;;;;;;30.57;100.00;98382.50;15287305;19;20010;-53
2023/08/18 17:25:12;;;;;;;5.25;3.30;;;;;;;30.39;100.00;98386.84;15284617;19;20021;-55
2023/08/18 17:30:40;;;;;;;3.30;3.00;;;;;;;30.18;100.00;98390.91;15289329;19;20015;-55
2023/08/18 17:36:06;;;;;;;7.15;3.55;;;;;;;29.91;100.00;98376.38;15261077;19;20727;-56
2023/08/18 17:41:30;;;;;;;7.07;3.70;;;;;;;29.46;100.00;98379.19;15290397;19;20010;-51
2023/08/18 17:46:59;;;;;;;4.93;3.60;;;;;;;29.17;100.00;98379.03;15287716;19;20015;-52
2023/08/18 17:52:30;;;;;;;6.70;3.92;;;;;;;28.84;100.00;98379.47;15289555;19;20410;-51
2023/08/18 17:57:55;;;;;;;5.90;3.92;;;;;;;28.39;100.00;98386.78;15287501;19;20010;-51
2023/08/18 18:03:22;;;;;;;4.35;3.95;;;;;;;27.94;100.00;98392.84;15292598;19;20017;-52
2023/08/18 18:08:47;;;;;;;5.05;4.10;;;;;;;27.55;100.00;98398.06;15286125;19;20014;-55
2023/08/18 18:14:11;;;;;;;4.85;4.03;;;;;;;27.03;100.00;98401.47;15292163;19;20011;-55
2023/08/18 18:19:38;;;;;;;4.85;4.10;;;;;;;26.62;100.00;98404.00;15292901;19;20022;-52
2023/08/18 18:25:03;;;;;;;4.88;4.13;;;;;;;26.21;100.00;98417.53;15288579;19;20018;-51
2023/08/18 18:30:28;;;;;;;7.38;4.30;;;;;;;25.88;100.00;98420.25;15282038;19;20018;-54
2023/08/18 18:35:55;;;;;;;5.72;4.53;;;;;;;25.56;100.00;98420.22;15289085;19;20018;-53
2023/08/18 18:41:20;;;;;;;8.80;4.68;;;;;;;25.35;100.00;98437.34;15288049;19;20353;-52
2023/08/18 18:46:45;;;;;;;8.57;4.70;;;;;;;25.15;100.00;98446.19;15288259;19;20011;-49
2023/08/18 18:52:12;;;;;;;5.20;4.70;;;;;;;25.03;100.00;98448.25;15282994;19;20022;-51
2023/08/18 18:57:37;;;;;;;5.53;4.85;;;;;;;24.88;100.00;98457.97;15289857;19;20471;-52
2023/08/18 19:03:02;;;;;;;6.10;5.00;;;;;;;24.70;100.00;98467.34;15272360;19;20078;-53
2023/08/18 19:08:29;;;;;;;6.47;5.00;;;;;;;24.62;100.00;98454.84;15286546;19;20349;-49
2023/08/18 19:13:54;;;;;;;5.55;4.70;;;;;;;24.55;100.00;98470.69;15282073;19;20018;-53
2023/08/18 19:19:18;;;;;;;8.77;4.85;;;;;;;24.52;100.00;98471.19;15290056;19;20476;-50
2023/08/18 19:24:45;;;;;;;5.75;4.55;;;;;;;24.47;100.00;98468.38;15286770;19;20018;-51
2023/08/18 19:30:11;;;;;;;5.50;4.63;;;;;;;24.36;100.00;98461.84;15288300;19;20025;-51
2023/08/18 19:35:36;;;;;;;7.70;4.55;;;;;;;24.26;100.00;98472.69;15287504;19;20018;-49
2023/08/18 19:41:07;;;;;;;4.97;4.10;;;;;;;24.19;100.00;98472.03;15299680;19;20011;-50
2023/08/18 19:46:33;;;;;;;;;;;;;;;24.09;100.00;98478.19;15295852;19;20022;-52
2023/08/18 19:51:57;;;;;;;6.38;5.38;;;;;;;24.04;100.00;98476.19;15298321;19;19910;-49
2023/08/18 19:57:26;;;;;;;7.45;5.57;;;;;;;23.92;100.00;98472.63;15306546;19;20085;-48
2023/08/18 20:02:50;;;;;;;6.90;5.70;;;;;;;23.84;100.00;98471.97;15295275;19;20019;-51
2023/08/18 20:08:15;;;;;;;5.78;5.28;;;;;;;23.81;100.00;98482.63;15304977;19;20111;-49
2023/08/18 20:13:44;;;;;;;5.90;5.00;;;;;;;23.75;100.00;98481.69;15304537;19;20027;-54
2023/08/18 20:19:10;;;;;;;6.07;5.22;;;;;;;23.64;100.00;98477.91;15303645;19;20014;-53
2023/08/18 20:24:36;;;;;;;7.10;5.90;;;;;;;23.53;100.00;98482.34;15309525;19;20011;-49
2023/08/18 20:30:06;;;;;;;6.95;5.20;;;;;;;23.43;100.00;98487.66;15308646;19;20010;-55
2023/08/18 20:35:32;;;;;;;7.07;5.40;;;;;;;23.31;100.00;98487.69;15299748;19;20010;-49
2023/08/18 20:40:58;;;;;;;8.48;5.90;;;;;;;23.24;100.00;98497.97;15311399;19;20007;-52
2023/08/18 20:46:27;;;;;;;7.88;5.90;;;;;;;23.15;100.00;98507.66;15306099;19;20019;-52
2023/08/18 20:51:52;;;;;;;5.53;4.97;;;;;;;23.05;100.00;98509.09;15296666;19;20015;-53
2023/08/18 20:57:19;;;;;;;5.88;4.70;;;;;;;22.97;100.00;98495.75;15303878;19;20500;-51
2023/08/18 21:02:48;;;;;;;7.20;5.03;;;;;;;22.88;100.00;98508.16;15299031;19;20023;-50
2023/08/18 21:08:14;;;;;;;6.78;6.07;;;;;;;22.78;100.00;98515.09;15300321;19;20010;-50
2023/08/18 21:13:40;;;;;;;6.65;5.95;;;;;;;22.71;100.00;98519.88;15299222;19;20022;-48
2023/08/18 21:19:09;;;;;;;6.50;5.90;;;;;;;22.63;100.00;98520.22;15305901;19;20010;-51
2023/08/18 21:24:35;;;;;;;7.32;6.60;;;;;;;22.56;100.00;98523.09;15300282;19;20018;-49
2023/08/18 21:30:00;;;;;;;7.88;6.10;;;;;;;22.49;100.00;98521.53;15300693;19;20014;-53
2023/08/18 21:35:29;;;;;;;7.30;6.60;;;;;;;22.41;100.00;98534.50;15298755;19;20018;-51
2023/08/18 21:40:58;;;;;;;6.65;5.95;;;;;;;22.32;100.00;98533.16;15294593;19;20018;-51
2023/08/18 21:46:24;;;;;;;7.53;6.82;;;;;;;22.26;100.00;98539.59;15297539;19;20014;-52
2023/08/18 21:51:52;;;;;;;8.25;6.72;;;;;;;22.20;100.00;98540.50;15294306;19;20033;-54
2023/08/18 21:57:18;;;;;;;7.13;6.40;;;;;;;22.16;100.00;98535.53;15302869;19;20030;-49
2023/08/18 22:02:45;;;;;;;7.18;6.20;;;;;;;22.11;100.00;98526.31;15297782;19;20035;-54
2023/08/18 22:08:14;;;;;;;7.05;6.30;;;;;;;22.04;100.00;98528.31;15301804;19;20570;-52
2023/08/18 22:13:40;;;;;;;7.53;6.68;;;;;;;21.96;100.00;98529.47;15290370;19;20014;-55
2023/08/18 22:19:06;;;;;;;11.55;7.40;;;;;;;21.86;100.00;98530.03;15297947;19;20015;-49
2023/08/18 22:24:40;;;;;;;10.18;9.07;;;;;;;21.81;100.00;98535.38;15286934;19;20018;-53
2023/08/18 22:30:08;;;;;;;8.10;6.75;;;;;;;21.72;100.00;98543.06;15297478;19;20014;-52
2023/08/18 22:35:34;;;;;;;8.73;7.30;;;;;;;21.65;100.00;98531.38;15296241;19;20011;-51
2023/08/18 22:41:04;;;;;;;9.50;7.05;;;;;;;21.54;100.00;98528.31;15295809;19;20047;-52
2023/08/18 22:46:29;;;;;;;8.32;7.53;;;;;;;21.43;100.00;98542.78;15285542;19;20106;-51
2023/08/18 22:52:00;;;;;;;9.60;7.72;;;;;;;21.30;100.00;98532.81;15283077;19;20045;-74
2023/08/18 22:57:28;;;;;;;9.98;8.20;;;;;;;21.23;100.00;98535.63;15286204;19;20011;-75
2023/08/18 23:02:52;;;;;;;9.45;8.45;;;;;;;21.16;100.00;98545.81;15289813;19;20351;-76
2023/08/18 23:08:17;;;;;;;10.35;8.45;;;;;;;21.10;100.00;98552.22;15293701;19;20010;-76
2023/08/18 23:13:44;;;;;;;10.40;9.30;;;;;;;21.06;100.00;98542.78;15285643;19;20009;-74
2023/08/18 23:19:09;;;;;;;10.02;8.23;;;;;;;21.00;100.00;98544.50;15253384;19;20013;-75
2023/08/18 23:24:33;;;;;;;10.20;9.10;;;;;;;20.91;100.00;98549.44;15284332;19;20361;-74
2023/08/18 23:30:01;;;;;;;11.85;10.57;;;;;;;20.83;100.00;98571.66;15282928;19;20268;-74
2023/08/18 23:35:27;;;;;;;13.00;10.27;;;;;;;20.73;100.00;98577.59;15286045;19;20018;-75
2023/08/18 23:40:53;;;;;;;13.65;11.73;;;;;;;20.67;100.00;98607.75;15295651;19;20003;-71
2023/08/18 23:46:20;;;;;;;14.02;12.52;;;;;;;20.63;100.00;98643.81;15293206;19;20092;-76
2023/08/18 23:51:51;;;;;;;13.70;11.82;;;;;;;20.64;100.00;98647.38;15277591;19;20015;-76
2023/08/18 23:57:16;;;;;;;14.15;11.57;;;;;;;20.64;100.00;98656.41;15288152;19;20097;-76
